Briefing drone pour Premery

Rechercher une autre localisation

Conditions de vol :


Nous sommes le : Mardi 24 mai 2022
Il est 06:19 UTC (08:19 LT)

Lever de soleil : 03:34 UTC (05:34 LT)
Coucher de soleil : 19:52 UTC (21:52 LT)

Météo

L'essentiel des conditions de vol

VIGILANCE MÉTÉO FRANCE - Nièvre (58)
Pas de vigilances particulieres
CARTE TEMSI
CARTES DES FRONTS
METAR de LFQG
LFQG 200600Z AUTO 13007KT CAVOK 21/12 Q1019

Date d'émission: 20/05/2022
Heure d'émission: 06:00 UTC
Vent: 130° pour 7 KT (13 km/h)
Visibilité horizontale: > 10 km
Plafond : Plafond et visibilité OK (CAVOK)
Température: 21 °C
Point de rosée: 12 °C
Humidité: 56%
Pression (QNH): 1019 hPa
Prévision 24h pour Nevers (15 km)
Vent : 294° pour 1 KT (3 km/h)
Temperature Maxi: 7 °C
Temperature Min: 7 °C
Humidité : 96%
Condition : Peu nuageux



Warning: count(): Parameter must be an array or an object that implements Countable in /homepages/6/d509196549/htdocs/droneoxygene/briefing.php on line 743
WEBCAM POUR PREMERY

Réglementation

Voler en sécurité

CARTES AERONAUTIQUE 1/500.000
CARTES VAC (LFQG)
SUP AIP




Chargement des AIP...
NOTAM (PREMERY + Terrain à proximité / FIR )




Chargement des NOTAMS...
CONTACT PREFECTURE 58


Avertissement : Les données mises à disposition sont indicatives. Oxygène Drone ne pourra être tenu responsable de dégâts causés aux biens et aux personnes.